createdAt,value
2023-04-23T00:00:30.848Z,56.40
2023-04-23T00:07:09.213Z,56.80
2023-04-23T00:08:13.042Z,56.70
2023-04-23T00:27:42.859Z,57.30
2023-04-23T00:30:58.377Z,57.40
2023-04-23T00:32:02.298Z,57.60
2023-04-23T00:36:20.389Z,57.70
2023-04-23T00:39:36.170Z,58.20
2023-04-23T00:40:42.526Z,58.20
2023-04-23T00:45:02.102Z,58.30
2023-04-23T00:46:06.590Z,58.40
2023-04-23T00:54:44.028Z,58.30
2023-04-23T00:59:03.958Z,58.20
2023-04-23T01:01:12.679Z,58.10
2023-04-23T01:09:53.274Z,58.20
2023-04-23T01:18:35.076Z,58.40
2023-04-23T01:28:15.994Z,58.90
2023-04-23T01:31:33.019Z,59.10
2023-04-23T01:47:42.130Z,59.70
2023-04-23T02:03:56.706Z,60.10
2023-04-23T02:10:28.455Z,60.70
2023-04-23T02:11:31.433Z,63.10
2023-04-23T02:12:35.419Z,60.60
2023-04-23T02:13:38.298Z,60.50
2023-04-23T02:15:48.044Z,60.70
2023-04-23T02:31:22.459Z,61.80
2023-04-23T02:50:47.055Z,60.50
2023-04-23T02:51:49.747Z,62.60
2023-04-23T02:55:04.460Z,62.60
2023-04-23T02:57:16.624Z,62.70
2023-04-23T02:58:19.770Z,62.90
2023-04-23T02:59:27.112Z,63.00
2023-04-23T03:00:30.396Z,63.20
2023-04-23T03:01:36.994Z,63.00
2023-04-23T03:02:42.128Z,63.30
2023-04-23T03:03:48.430Z,63.00
2023-04-23T03:06:00.704Z,63.10
2023-04-23T03:08:10.929Z,63.20
2023-04-23T03:09:20.892Z,63.20
2023-04-23T03:10:54.760Z,63.30
2023-04-23T03:11:58.382Z,63.30
2023-04-23T03:13:03.264Z,63.50
2023-04-23T03:14:06.579Z,63.30
2023-04-23T03:15:11.935Z,63.30
2023-04-23T03:16:15.678Z,63.30
2023-04-23T03:25:03.361Z,63.60
2023-04-23T03:26:06.996Z,63.50
2023-04-23T03:29:26.482Z,63.90
2023-04-23T03:30:30.613Z,64.20
2023-04-23T03:31:34.433Z,64.20
2023-04-23T03:35:51.090Z,64.20
2023-04-23T03:36:59.471Z,64.20
2023-04-23T03:38:07.758Z,64.40
2023-04-23T03:39:15.288Z,64.80
2023-04-23T03:40:29.724Z,64.50
2023-04-23T03:47:10.109Z,64.60
2023-04-23T03:48:14.642Z,64.50
2023-04-23T03:49:17.791Z,64.10
2023-04-23T03:50:22.269Z,64.50
2023-04-23T03:52:41.363Z,64.60
2023-04-23T03:55:13.781Z,64.70
2023-04-23T03:56:27.828Z,64.80
2023-04-23T03:58:06.994Z,64.00
2023-04-23T03:59:21.724Z,62.90
2023-04-23T04:00:31.247Z,61.70
2023-04-23T04:01:37.175Z,61.40
2023-04-23T04:02:41.493Z,59.30
2023-04-23T04:03:44.368Z,58.80
2023-04-23T04:04:52.193Z,56.40
2023-04-23T04:05:55.934Z,57.20
2023-04-23T04:07:03.972Z,57.30
2023-04-23T04:08:09.395Z,57.40
2023-04-23T04:09:13.188Z,57.40
2023-04-23T04:10:15.925Z,57.10
2023-04-23T04:11:20.482Z,56.00
2023-04-23T04:12:27.652Z,56.50
2023-04-23T04:13:31.679Z,56.20
2023-04-23T04:14:37.606Z,56.00
2023-04-23T04:15:41.710Z,55.60
2023-04-23T04:16:47.897Z,55.80
2023-04-23T04:18:56.593Z,56.20
2023-04-23T04:20:00.791Z,54.80
2023-04-23T04:22:07.881Z,53.80
2023-04-23T04:23:13.631Z,54.40
2023-04-23T04:24:17.817Z,53.70
2023-04-23T04:25:22.505Z,53.60
2023-04-23T04:26:29.610Z,54.20
2023-04-23T04:27:34.881Z,53.70
2023-04-23T04:28:39.817Z,53.50
2023-04-23T04:29:42.910Z,53.30
2023-04-23T04:30:47.611Z,53.30
2023-04-23T04:31:51.769Z,53.70
2023-04-23T04:32:59.185Z,53.70
2023-04-23T04:35:14.613Z,53.20
2023-04-23T04:36:18.461Z,53.80
2023-04-23T04:37:23.027Z,53.40
2023-04-23T04:38:26.600Z,53.50
2023-04-23T04:39:30.622Z,53.00
2023-04-23T04:40:36.980Z,53.20
2023-04-23T04:41:42.394Z,53.30
2023-04-23T04:42:49.326Z,53.90
2023-04-23T04:43:57.783Z,53.90
2023-04-23T04:45:01.204Z,53.20
2023-04-23T04:46:07.285Z,52.90
2023-04-23T04:47:11.006Z,53.10
2023-04-23T04:48:14.594Z,53.30
2023-04-23T04:49:20.361Z,53.10
2023-04-23T04:50:26.532Z,53.70
2023-04-23T04:51:31.932Z,53.30
2023-04-23T04:52:35.868Z,53.20
2023-04-23T04:53:40.641Z,53.00
2023-04-23T04:54:45.289Z,52.10
2023-04-23T04:55:48.000Z,52.60
2023-04-23T04:56:51.981Z,52.00
2023-04-23T04:59:03.129Z,51.70
2023-04-23T05:00:23.090Z,51.60
2023-04-23T05:01:27.389Z,52.00
2023-04-23T05:02:31.701Z,52.90
2023-04-23T05:03:34.946Z,51.40
2023-04-23T05:04:41.582Z,52.10
2023-04-23T05:05:45.375Z,51.90
2023-04-23T05:06:48.657Z,51.80
2023-04-23T05:07:51.552Z,50.30
2023-04-23T05:09:02.550Z,51.40
2023-04-23T05:10:05.600Z,51.40
2023-04-23T05:11:11.679Z,51.40
2023-04-23T05:12:17.108Z,51.80
2023-04-23T05:13:22.074Z,51.30
2023-04-23T05:14:26.775Z,50.90
2023-04-23T05:15:30.364Z,50.90
2023-04-23T05:16:35.702Z,50.60
2023-04-23T05:17:41.384Z,50.50
2023-04-23T05:18:45.150Z,50.70
2023-04-23T05:19:47.597Z,50.30
2023-04-23T05:20:50.977Z,50.70
2023-04-23T05:21:54.778Z,50.20
2023-04-23T05:22:59.524Z,50.50
2023-04-23T05:24:03.664Z,49.80
2023-04-23T05:25:10.192Z,49.60
2023-04-23T05:26:13.745Z,50.10
2023-04-23T05:27:16.654Z,49.90
2023-04-23T05:28:24.130Z,49.10
2023-04-23T05:29:26.982Z,49.20
2023-04-23T05:30:30.756Z,49.20
2023-04-23T05:31:36.726Z,49.00
2023-04-23T05:32:45.931Z,49.00
2023-04-23T05:33:50.738Z,48.80
2023-04-23T05:34:53.854Z,49.70
2023-04-23T05:35:57.497Z,48.60
2023-04-23T05:36:59.970Z,47.80
2023-04-23T05:38:06.616Z,48.50
2023-04-23T05:39:09.413Z,48.80
2023-04-23T05:40:15.615Z,49.60
2023-04-23T05:41:18.396Z,49.60
2023-04-23T05:42:22.329Z,49.30
2023-04-23T05:43:26.656Z,48.40
2023-04-23T05:44:30.348Z,49.30
2023-04-23T05:45:32.707Z,49.20
2023-04-23T05:46:39.717Z,49.10
2023-04-23T05:47:42.686Z,49.60
2023-04-23T05:48:46.631Z,49.00
2023-04-23T05:49:49.106Z,47.90
2023-04-23T05:50:55.056Z,49.50
2023-04-23T05:51:59.389Z,49.70
2023-04-23T05:53:03.220Z,50.10
2023-04-23T05:54:06.959Z,50.20
2023-04-23T05:55:11.525Z,50.40
2023-04-23T05:56:14.221Z,49.30
2023-04-23T05:57:17.820Z,49.20
2023-04-23T05:58:22.712Z,48.30
2023-04-23T05:59:30.419Z,49.40
2023-04-23T06:03:52.733Z,47.60
2023-04-23T06:04:56.248Z,49.50
2023-04-23T06:06:00.222Z,50.00
2023-04-23T06:08:09.374Z,48.40
2023-04-23T06:09:12.438Z,46.70
2023-04-23T06:10:18.727Z,47.50
2023-04-23T06:11:21.664Z,48.10
2023-04-23T06:12:25.325Z,48.50
2023-04-23T06:13:30.910Z,48.50
2023-04-23T06:14:36.670Z,48.90
2023-04-23T06:15:41.065Z,47.70
2023-04-23T06:16:43.566Z,48.10
2023-04-23T06:17:46.882Z,47.60
2023-04-23T06:19:53.191Z,47.80
2023-04-23T06:21:04.381Z,48.80
2023-04-23T06:22:11.100Z,49.10
2023-04-23T06:23:15.868Z,48.30
2023-04-23T06:24:22.691Z,48.70
2023-04-23T06:25:30.681Z,47.90
2023-04-23T06:26:36.518Z,47.90
2023-04-23T06:27:48.267Z,48.60
2023-04-23T06:28:56.999Z,47.90
2023-04-23T06:30:11.933Z,48.30
2023-04-23T06:31:15.814Z,47.40
2023-04-23T06:32:23.528Z,47.70
2023-04-23T06:33:28.355Z,47.70
2023-04-23T06:34:32.169Z,47.10
2023-04-23T06:35:34.798Z,46.80
2023-04-23T06:36:38.193Z,47.90
2023-04-23T06:37:42.119Z,46.60
2023-04-23T06:38:50.855Z,47.10
2023-04-23T06:39:53.252Z,45.80
2023-04-23T06:40:59.238Z,47.10
2023-04-23T06:42:04.085Z,46.50
2023-04-23T06:43:20.677Z,45.80
2023-04-23T06:44:43.270Z,45.40
2023-04-23T06:45:49.120Z,46.10
2023-04-23T06:46:51.765Z,45.50
2023-04-23T06:47:57.364Z,46.00
2023-04-23T06:48:59.975Z,46.30
2023-04-23T06:50:03.788Z,47.00
2023-04-23T06:51:06.729Z,46.20
2023-04-23T06:52:10.417Z,46.50
2023-04-23T06:53:15.580Z,46.30
2023-04-23T06:54:23.886Z,46.40
2023-04-23T06:55:30.577Z,47.10
2023-04-23T06:56:35.156Z,46.90
2023-04-23T06:57:38.771Z,46.70
2023-04-23T06:58:41.327Z,46.30
2023-04-23T06:59:53.439Z,46.70
2023-04-23T07:01:04.297Z,46.30
2023-04-23T07:02:10.502Z,46.00
2023-04-23T07:03:15.621Z,46.00
2023-04-23T07:04:21.533Z,45.90
2023-04-23T07:05:24.205Z,45.80
2023-04-23T07:06:28.462Z,46.10
2023-04-23T07:07:38.085Z,46.60
2023-04-23T07:08:44.062Z,47.10
2023-04-23T07:09:46.629Z,47.40
2023-04-23T07:10:50.696Z,47.20
2023-04-23T07:11:53.348Z,46.70
2023-04-23T07:12:59.117Z,46.20
2023-04-23T07:14:02.436Z,45.60
2023-04-23T07:15:07.170Z,46.00
2023-04-23T07:16:11.413Z,45.70
2023-04-23T07:17:18.700Z,45.60
2023-04-23T07:18:22.331Z,45.70
2023-04-23T07:19:25.009Z,45.90
2023-04-23T07:20:30.635Z,45.90
2023-04-23T07:21:33.208Z,45.00
2023-04-23T07:22:37.391Z,45.10
2023-04-23T07:23:39.872Z,45.20
2023-04-23T07:24:45.975Z,45.10
2023-04-23T07:25:48.467Z,46.20
2023-04-23T07:26:52.037Z,45.80
2023-04-23T07:28:00.335Z,45.00
2023-04-23T07:29:41.226Z,45.20
2023-04-23T07:30:43.862Z,44.60
2023-04-23T07:31:50.729Z,44.30
2023-04-23T07:32:53.436Z,47.20
2023-04-23T07:33:57.162Z,44.70
2023-04-23T07:34:59.522Z,44.40
2023-04-23T07:36:03.260Z,43.60
2023-04-23T07:37:09.053Z,43.70
2023-04-23T07:38:14.390Z,43.10
2023-04-23T07:39:17.039Z,44.00
2023-04-23T07:40:22.357Z,44.40
2023-04-23T07:41:25.467Z,42.70
2023-04-23T07:42:29.294Z,43.70
2023-04-23T07:43:32.932Z,43.30
2023-04-23T07:48:48.571Z,43.50
2023-04-23T08:03:47.262Z,43.20
2023-04-23T08:17:21.652Z,43.20
2023-04-23T08:22:40.183Z,43.10
2023-04-23T08:23:50.875Z,42.90
2023-04-23T08:25:20.146Z,43.30
2023-04-23T08:26:52.371Z,43.60
2023-04-23T08:30:47.488Z,43.50
2023-04-23T08:35:46.641Z,41.10
2023-04-23T08:40:46.484Z,42.30
2023-04-23T08:50:55.863Z,41.10
2023-04-23T09:00:32.103Z,41.00
2023-04-23T09:01:36.383Z,41.30
2023-04-23T09:02:43.081Z,41.70
2023-04-23T09:03:47.307Z,42.40
2023-04-23T09:04:55.617Z,41.90
2023-04-23T09:06:00.687Z,41.60
2023-04-23T09:07:04.848Z,42.10
2023-04-23T09:08:12.427Z,41.00
2023-04-23T09:09:17.737Z,40.70
2023-04-23T09:10:23.471Z,40.70
2023-04-23T09:11:29.594Z,41.00
2023-04-23T09:12:33.954Z,41.40
2023-04-23T09:13:38.007Z,40.50
2023-04-23T09:14:40.914Z,39.80
2023-04-23T09:15:46.527Z,40.10
2023-04-23T09:16:49.545Z,40.00
2023-04-23T09:17:53.803Z,40.50
2023-04-23T09:18:57.208Z,40.30
2023-04-23T09:20:00.873Z,40.80
2023-04-23T09:21:05.957Z,42.20
2023-04-23T09:22:09.623Z,43.20
2023-04-23T09:23:16.784Z,42.10
2023-04-23T09:24:19.655Z,42.30
2023-04-23T09:25:25.434Z,41.10
2023-04-23T09:26:28.716Z,40.60
2023-04-23T09:27:34.751Z,40.10
2023-04-23T09:28:39.095Z,40.70
2023-04-23T09:29:46.346Z,40.50
2023-04-23T09:30:50.555Z,40.30
2023-04-23T09:31:56.985Z,40.40
2023-04-23T09:33:01.470Z,41.00
2023-04-23T09:34:04.163Z,41.50
2023-04-23T09:35:10.409Z,44.20
2023-04-23T09:36:16.397Z,41.70
2023-04-23T09:37:20.906Z,41.60
2023-04-23T09:38:24.912Z,40.80
2023-04-23T09:39:27.439Z,40.60
2023-04-23T09:40:31.147Z,40.00
2023-04-23T09:41:34.035Z,40.10
2023-04-23T09:42:42.087Z,41.20
2023-04-23T09:43:48.183Z,40.60
2023-04-23T09:44:59.417Z,40.20
2023-04-23T09:46:03.484Z,40.60
2023-04-23T09:47:12.386Z,39.40
2023-04-23T09:48:15.004Z,40.10
2023-04-23T09:49:19.532Z,39.80
2023-04-23T09:50:33.027Z,40.70
2023-04-23T09:51:39.663Z,40.50
2023-04-23T09:52:43.443Z,42.50
2023-04-23T09:53:47.431Z,41.70
2023-04-23T09:54:52.002Z,40.30
2023-04-23T09:55:56.249Z,42.20
2023-04-23T09:57:02.380Z,40.60
2023-04-23T09:58:07.536Z,41.80
2023-04-23T09:59:35.979Z,40.60
2023-04-23T10:00:48.819Z,39.90
2023-04-23T10:01:53.690Z,40.80
2023-04-23T10:03:01.518Z,40.90
2023-04-23T10:04:04.675Z,40.10
2023-04-23T10:05:24.275Z,40.80
2023-04-23T10:06:42.359Z,40.40
2023-04-23T10:07:54.255Z,40.10
2023-04-23T10:08:56.998Z,40.50
2023-04-23T10:10:00.828Z,40.60
2023-04-23T10:11:20.080Z,41.10
2023-04-23T10:13:31.757Z,41.80
2023-04-23T10:14:36.543Z,40.80
2023-04-23T10:15:39.320Z,40.70
2023-04-23T10:16:49.332Z,40.70
2023-04-23T10:17:54.704Z,41.20
2023-04-23T10:19:02.429Z,41.20
2023-04-23T10:20:07.354Z,41.60
2023-04-23T10:21:13.315Z,40.50
2023-04-23T10:22:20.614Z,41.80
2023-04-23T10:23:27.298Z,41.00
2023-04-23T10:24:35.610Z,40.70
2023-04-23T10:25:41.018Z,40.80
2023-04-23T10:26:46.530Z,40.80
2023-04-23T10:27:54.867Z,41.00
2023-04-23T10:29:03.490Z,42.90
2023-04-23T10:30:09.322Z,41.50
2023-04-23T10:31:12.244Z,40.80
2023-04-23T10:32:17.087Z,40.80
2023-04-23T10:34:35.503Z,39.40
2023-04-23T10:35:40.520Z,39.10
2023-04-23T10:36:43.338Z,39.90
2023-04-23T10:37:50.808Z,39.80
2023-04-23T10:38:59.182Z,40.00
2023-04-23T10:40:11.762Z,39.30
2023-04-23T10:41:22.285Z,39.30
2023-04-23T10:42:26.863Z,40.20
2023-04-23T10:43:30.052Z,39.80
2023-04-23T10:44:56.772Z,38.80
2023-04-23T10:45:59.069Z,40.30
2023-04-23T10:47:02.459Z,40.30
2023-04-23T10:48:06.518Z,39.80
2023-04-23T10:49:14.884Z,39.30
2023-04-23T10:50:26.377Z,39.70
2023-04-23T10:52:17.159Z,38.90
2023-04-23T10:53:03.219Z,41.10
2023-04-23T10:54:08.641Z,40.10
2023-04-23T10:55:19.157Z,39.40
2023-04-23T10:56:23.159Z,39.50
2023-04-23T10:57:25.913Z,39.20
2023-04-23T10:58:50.766Z,39.70
2023-04-23T10:59:58.925Z,39.10
2023-04-23T11:01:06.295Z,39.50
2023-04-23T11:02:14.009Z,39.00
2023-04-23T11:03:43.344Z,38.60
2023-04-23T11:04:57.174Z,38.60
2023-04-23T11:06:02.470Z,38.70
2023-04-23T11:07:08.339Z,39.30
2023-04-23T11:08:19.270Z,40.30
2023-04-23T11:09:34.431Z,40.70
2023-04-23T11:10:56.341Z,39.60
2023-04-23T11:12:00.221Z,39.50
2023-04-23T11:13:26.083Z,39.70
2023-04-23T11:14:37.782Z,39.40
2023-04-23T11:15:44.238Z,40.30
2023-04-23T11:16:49.481Z,40.00
2023-04-23T11:18:03.357Z,39.50
2023-04-23T11:19:13.156Z,39.40
2023-04-23T11:20:22.133Z,39.80
2023-04-23T11:21:57.569Z,40.00
2023-04-23T11:23:01.499Z,39.40
2023-04-23T11:24:08.191Z,39.10
2023-04-23T11:25:13.264Z,39.30
2023-04-23T11:26:19.021Z,38.90
2023-04-23T11:27:22.776Z,38.40
2023-04-23T11:28:32.521Z,38.70
2023-04-23T11:29:37.763Z,38.60
2023-04-23T11:30:40.519Z,39.30
2023-04-23T11:31:58.485Z,39.00
2023-04-23T11:33:07.046Z,38.70
2023-04-23T11:34:10.856Z,38.60
2023-04-23T11:35:20.714Z,38.50
2023-04-23T11:36:25.292Z,39.10
2023-04-23T11:37:29.096Z,39.20
2023-04-23T11:38:38.045Z,39.40
2023-04-23T11:39:45.903Z,39.70
2023-04-23T11:40:51.809Z,38.70
2023-04-23T11:41:57.534Z,39.00
2023-04-23T11:43:00.425Z,41.10
2023-04-23T11:44:06.837Z,39.80
2023-04-23T11:45:20.715Z,39.30
2023-04-23T11:46:23.579Z,38.10
2023-04-23T11:47:28.142Z,38.00
2023-04-23T11:48:31.233Z,39.20
2023-04-23T11:49:35.227Z,38.70
2023-04-23T11:50:43.683Z,38.80
2023-04-23T11:51:48.071Z,38.80
2023-04-23T11:52:53.296Z,39.10
2023-04-23T11:54:02.603Z,39.40
2023-04-23T11:55:08.630Z,39.80
2023-04-23T11:56:11.659Z,38.50
2023-04-23T11:57:15.246Z,39.00
2023-04-23T11:58:19.587Z,38.70
2023-04-23T11:59:24.485Z,38.60
2023-04-23T12:00:27.913Z,39.90
2023-04-23T12:01:45.096Z,38.60
2023-04-23T12:02:58.090Z,38.00
2023-04-23T12:04:01.139Z,38.00
2023-04-23T12:05:10.055Z,37.70
2023-04-23T12:06:16.037Z,38.00
2023-04-23T12:07:26.478Z,38.60
2023-04-23T12:08:35.002Z,38.90
2023-04-23T12:09:39.296Z,37.90
2023-04-23T12:10:47.118Z,37.60
2023-04-23T12:11:52.282Z,38.10
2023-04-23T12:12:55.083Z,38.20
2023-04-23T12:13:59.588Z,37.90
2023-04-23T12:15:08.479Z,37.90
2023-04-23T12:16:11.482Z,37.90
2023-04-23T12:17:15.238Z,39.60
2023-04-23T12:18:18.766Z,38.70
2023-04-23T12:19:26.809Z,38.60
2023-04-23T12:20:32.628Z,39.20
2023-04-23T12:21:51.623Z,41.10
2023-04-23T12:22:55.576Z,38.80
2023-04-23T12:23:58.768Z,38.50
2023-04-23T12:25:09.866Z,38.50
2023-04-23T12:26:15.547Z,39.40
2023-04-23T12:27:22.761Z,38.60
2023-04-23T12:28:26.333Z,38.10
2023-04-23T12:29:32.371Z,37.80
2023-04-23T12:30:44.357Z,37.80
2023-04-23T12:31:49.073Z,38.00
2023-04-23T12:32:53.965Z,37.70
2023-04-23T12:34:03.852Z,38.30
2023-04-23T12:35:11.655Z,38.00
2023-04-23T12:36:16.860Z,37.70
2023-04-23T12:37:27.175Z,37.40
2023-04-23T12:38:31.795Z,36.40
2023-04-23T12:39:37.835Z,37.50
2023-04-23T12:40:40.345Z,37.60
2023-04-23T12:41:44.210Z,37.60
2023-04-23T12:42:50.311Z,36.70
2023-04-23T12:43:53.613Z,36.30
2023-04-23T12:44:59.803Z,36.90
2023-04-23T12:46:05.543Z,37.40
2023-04-23T12:47:11.689Z,37.40
2023-04-23T12:48:15.302Z,37.60
2023-04-23T12:49:19.053Z,37.50
2023-04-23T12:50:22.708Z,37.50
2023-04-23T12:51:27.463Z,37.80
2023-04-23T12:52:33.061Z,37.60
2023-04-23T12:53:37.809Z,37.50
2023-04-23T12:54:41.897Z,37.40
2023-04-23T12:55:48.042Z,37.60
2023-04-23T12:56:54.594Z,37.40
2023-04-23T12:57:59.714Z,37.60
2023-04-23T12:59:07.057Z,37.60
2023-04-23T13:00:14.327Z,38.00
2023-04-23T13:01:24.380Z,39.30
2023-04-23T13:02:29.990Z,38.10
2023-04-23T13:03:33.125Z,38.70
2023-04-23T13:04:37.971Z,37.40
2023-04-23T13:05:41.653Z,37.10
2023-04-23T13:06:44.126Z,37.50
2023-04-23T13:07:49.011Z,37.50
2023-04-23T13:08:52.346Z,37.80
2023-04-23T13:09:57.611Z,37.90
2023-04-23T13:11:03.301Z,38.00
2023-04-23T13:12:06.004Z,37.80
2023-04-23T13:13:09.833Z,38.10
2023-04-23T13:14:12.684Z,37.80
2023-04-23T13:15:16.122Z,37.80
2023-04-23T13:16:19.365Z,37.70
2023-04-23T13:17:23.285Z,37.50
2023-04-23T13:18:26.360Z,37.80
2023-04-23T13:19:30.072Z,38.40
2023-04-23T13:20:32.454Z,37.90
2023-04-23T13:21:36.342Z,37.90
2023-04-23T13:22:39.082Z,37.90
2023-04-23T13:23:44.086Z,37.90
2023-04-23T13:24:47.910Z,37.90
2023-04-23T13:25:51.426Z,36.00
2023-04-23T13:26:55.261Z,37.30
2023-04-23T13:27:58.481Z,37.70
2023-04-23T13:29:04.144Z,37.80
2023-04-23T13:30:08.839Z,37.80
2023-04-23T13:31:13.875Z,37.80
2023-04-23T13:32:16.751Z,37.70
2023-04-23T13:33:21.438Z,36.90
2023-04-23T13:34:24.113Z,37.90
2023-04-23T13:35:27.923Z,38.30
2023-04-23T13:36:31.065Z,37.80
2023-04-23T13:37:35.341Z,37.70
2023-04-23T13:38:38.011Z,36.40
2023-04-23T13:39:43.880Z,38.00
2023-04-23T13:40:46.904Z,37.80
2023-04-23T13:42:06.143Z,38.20
2023-04-23T13:43:13.804Z,37.50
2023-04-23T13:44:16.832Z,37.40
2023-04-23T13:45:20.441Z,37.70
2023-04-23T13:46:23.314Z,37.40
2023-04-23T13:47:31.338Z,37.60
2023-04-23T13:48:34.383Z,37.70
2023-04-23T13:49:38.458Z,37.70
2023-04-23T13:50:41.904Z,38.30
2023-04-23T13:51:45.799Z,38.20
2023-04-23T13:52:48.449Z,38.10
2023-04-23T13:53:52.695Z,37.80
2023-04-23T13:54:57.900Z,37.00
2023-04-23T13:56:02.092Z,37.50
2023-04-23T13:57:04.886Z,37.10
2023-04-23T13:58:12.129Z,38.60
2023-04-23T13:59:20.323Z,37.40
2023-04-23T14:00:23.568Z,37.50
2023-04-23T14:01:27.329Z,36.90
2023-04-23T14:02:30.017Z,37.80
2023-04-23T14:03:34.308Z,37.40
2023-04-23T14:04:40.053Z,38.00
2023-04-23T14:05:44.406Z,37.90
2023-04-23T14:06:47.490Z,38.10
2023-04-23T14:07:52.624Z,38.10
2023-04-23T14:08:56.002Z,38.20
2023-04-23T14:10:01.995Z,38.20
2023-04-23T14:11:08.011Z,37.80
2023-04-23T14:12:11.877Z,37.60
2023-04-23T14:13:14.922Z,37.80
2023-04-23T14:14:19.236Z,37.60
2023-04-23T14:15:23.997Z,37.40
2023-04-23T14:16:26.859Z,37.20
2023-04-23T14:17:30.742Z,37.80
2023-04-23T14:18:36.661Z,37.30
2023-04-23T14:19:41.310Z,37.90
2023-04-23T14:20:47.814Z,37.60
2023-04-23T14:21:50.752Z,37.60
2023-04-23T14:23:02.681Z,38.50
2023-04-23T14:24:18.324Z,38.10
2023-04-23T14:25:32.161Z,37.30
2023-04-23T14:26:47.935Z,37.90
2023-04-23T14:27:57.562Z,37.50
2023-04-23T14:29:09.120Z,37.10
2023-04-23T14:30:18.334Z,38.00
2023-04-23T14:31:20.977Z,38.40
2023-04-23T14:32:25.380Z,37.60
2023-04-23T14:33:28.025Z,37.40
2023-04-23T14:34:31.914Z,37.20
2023-04-23T14:35:43.048Z,37.50
2023-04-23T14:36:49.641Z,37.50
2023-04-23T14:37:55.626Z,37.40
2023-04-23T14:39:05.577Z,37.60
2023-04-23T14:40:13.537Z,37.80
2023-04-23T14:41:17.910Z,38.00
2023-04-23T14:42:21.552Z,38.20
2023-04-23T14:43:23.909Z,38.30
2023-04-23T14:44:30.581Z,38.20
2023-04-23T14:45:34.030Z,38.30
2023-04-23T14:46:38.332Z,38.20
2023-04-23T14:47:44.046Z,38.40
2023-04-23T14:48:49.354Z,38.30
2023-04-23T14:49:57.663Z,38.20
2023-04-23T14:51:00.119Z,38.50
2023-04-23T14:52:05.005Z,38.50
2023-04-23T14:53:10.799Z,38.60
2023-04-23T14:54:14.756Z,38.70
2023-04-23T14:55:18.963Z,39.00
2023-04-23T14:56:24.091Z,38.70
2023-04-23T14:57:27.429Z,39.50
2023-04-23T14:58:31.052Z,38.80
2023-04-23T14:59:33.869Z,39.10
2023-04-23T15:00:37.673Z,39.10
2023-04-23T15:01:40.595Z,38.80
2023-04-23T15:02:46.075Z,37.90
2023-04-23T15:03:48.917Z,39.70
2023-04-23T15:04:53.722Z,38.70
2023-04-23T15:05:57.575Z,39.10
2023-04-23T15:06:59.968Z,39.50
2023-04-23T15:08:03.916Z,38.60
2023-04-23T15:09:06.764Z,38.70
2023-04-23T15:10:11.738Z,38.00
2023-04-23T15:11:15.628Z,38.50
2023-04-23T15:12:43.331Z,38.80
2023-04-23T15:13:56.516Z,38.70
2023-04-23T15:14:59.620Z,39.00
2023-04-23T15:16:05.898Z,38.40
2023-04-23T15:17:09.756Z,38.50
2023-04-23T15:18:13.697Z,38.60
2023-04-23T15:19:19.033Z,38.60
2023-04-23T15:20:22.620Z,38.90
2023-04-23T15:21:30.396Z,39.10
2023-04-23T15:22:33.400Z,39.00
2023-04-23T15:23:37.377Z,39.40
2023-04-23T15:24:39.718Z,39.20
2023-04-23T15:25:43.359Z,39.50
2023-04-23T15:26:46.563Z,39.60
2023-04-23T15:27:57.930Z,40.00
2023-04-23T15:29:01.620Z,40.20
2023-04-23T15:30:05.419Z,39.70
2023-04-23T15:31:08.920Z,39.10
2023-04-23T15:32:14.084Z,38.90
2023-04-23T15:33:21.877Z,39.00
2023-04-23T15:34:25.570Z,39.00
2023-04-23T15:35:28.748Z,39.40
2023-04-23T15:36:35.527Z,38.80
2023-04-23T15:37:38.349Z,39.20
2023-04-23T15:38:42.522Z,39.40
2023-04-23T15:39:45.321Z,39.40
2023-04-23T15:40:50.160Z,40.50
2023-04-23T15:41:56.309Z,40.50
2023-04-23T15:43:01.942Z,39.20
2023-04-23T15:44:05.537Z,39.60
2023-04-23T15:45:10.823Z,40.10
2023-04-23T15:46:14.651Z,40.00
2023-04-23T15:47:17.543Z,39.60
2023-04-23T15:48:21.511Z,39.90
2023-04-23T15:49:24.479Z,39.60
2023-04-23T15:50:28.404Z,39.60
2023-04-23T15:51:32.439Z,39.70
2023-04-23T15:52:36.700Z,39.70
2023-04-23T15:53:39.495Z,39.70
2023-04-23T15:54:43.081Z,38.80
2023-04-23T15:55:45.814Z,39.50
2023-04-23T15:56:49.560Z,39.50
2023-04-23T15:57:52.579Z,40.10
2023-04-23T15:58:58.051Z,40.00
2023-04-23T16:00:06.526Z,39.80
2023-04-23T16:01:15.669Z,40.30
2023-04-23T16:02:18.717Z,40.20
2023-04-23T16:03:22.975Z,40.30
2023-04-23T16:04:27.668Z,40.00
2023-04-23T16:05:32.889Z,40.20
2023-04-23T16:06:35.894Z,40.30
2023-04-23T16:07:39.497Z,40.50
2023-04-23T16:08:43.127Z,40.80
2023-04-23T16:09:45.815Z,40.00
2023-04-23T16:10:49.497Z,41.30
2023-04-23T16:11:52.733Z,40.50
2023-04-23T16:12:58.524Z,40.60
2023-04-23T16:14:02.928Z,40.70
2023-04-23T16:15:07.745Z,40.90
2023-04-23T16:16:11.523Z,41.20
2023-04-23T16:17:14.428Z,41.10
2023-04-23T16:18:18.319Z,41.20
2023-04-23T16:19:20.780Z,41.20
2023-04-23T16:20:24.899Z,41.70
2023-04-23T16:21:28.177Z,41.30
2023-04-23T16:22:32.132Z,41.10
2023-04-23T16:23:34.927Z,41.00
2023-04-23T16:24:38.901Z,41.20
2023-04-23T16:25:44.291Z,41.50
2023-04-23T16:26:51.229Z,41.20
2023-04-23T16:27:55.101Z,41.40
2023-04-23T16:29:11.177Z,41.10
2023-04-23T16:30:16.963Z,40.80
2023-04-23T16:31:19.891Z,40.80
2023-04-23T16:32:23.961Z,40.80
2023-04-23T16:33:27.455Z,40.90
2023-04-23T16:34:31.358Z,41.10
2023-04-23T16:35:34.970Z,41.30
2023-04-23T16:36:37.739Z,41.00
2023-04-23T16:37:41.864Z,41.10
2023-04-23T16:38:47.963Z,41.20
2023-04-23T16:39:53.098Z,40.70
2023-04-23T16:40:56.136Z,41.20
2023-04-23T16:41:59.850Z,40.70
2023-04-23T16:43:03.195Z,41.20
2023-04-23T16:44:07.463Z,41.90
2023-04-23T16:45:11.129Z,41.70
2023-04-23T16:46:16.805Z,41.80
2023-04-23T16:47:19.838Z,42.00
2023-04-23T16:48:24.145Z,41.80
2023-04-23T16:49:28.558Z,42.00
2023-04-23T16:50:32.904Z,43.30
2023-04-23T16:51:36.295Z,42.00
2023-04-23T16:52:40.980Z,42.20
2023-04-23T16:53:46.771Z,42.40
2023-04-23T16:54:51.270Z,41.70
2023-04-23T16:55:54.674Z,42.00
2023-04-23T16:56:58.865Z,42.00
2023-04-23T16:58:01.687Z,42.20
2023-04-23T16:59:09.590Z,42.40
2023-04-23T17:00:14.614Z,41.60
2023-04-23T17:01:19.100Z,41.30
2023-04-23T17:02:23.114Z,42.10
2023-04-23T17:03:26.148Z,42.00
2023-04-23T17:04:29.976Z,42.40
2023-04-23T17:05:35.583Z,42.30
2023-04-23T17:06:39.698Z,42.40
2023-04-23T17:07:44.622Z,42.40
2023-04-23T17:08:48.755Z,42.30
2023-04-23T17:09:53.518Z,42.10
2023-04-23T17:10:56.499Z,42.50
2023-04-23T17:12:00.430Z,42.40
2023-04-23T17:13:03.778Z,42.70
2023-04-23T17:14:08.114Z,44.20
2023-04-23T17:15:12.046Z,42.10
2023-04-23T17:16:16.283Z,42.30
2023-04-23T17:17:21.821Z,41.50
2023-04-23T17:18:25.089Z,42.30
2023-04-23T17:19:29.007Z,42.40
2023-04-23T17:20:35.403Z,42.90
2023-04-23T17:21:39.498Z,42.40
2023-04-23T17:22:42.619Z,43.20
2023-04-23T17:23:47.053Z,42.10
2023-04-23T17:24:51.039Z,42.60
2023-04-23T17:25:56.040Z,42.90
2023-04-23T17:27:00.136Z,42.80
2023-04-23T17:28:03.110Z,43.00
2023-04-23T17:29:07.020Z,43.50
2023-04-23T17:30:11.362Z,43.70
2023-04-23T17:31:15.388Z,43.20
2023-04-23T17:32:19.726Z,42.90
2023-04-23T17:33:24.569Z,43.00
2023-04-23T17:34:28.504Z,43.10
2023-04-23T17:35:31.729Z,43.00
2023-04-23T17:36:35.721Z,43.00
2023-04-23T17:37:39.227Z,42.70
2023-04-23T17:38:43.290Z,43.10
2023-04-23T17:39:46.858Z,44.50
2023-04-23T17:40:51.440Z,43.10
2023-04-23T17:41:57.597Z,43.30
2023-04-23T17:43:00.533Z,42.90
2023-04-23T17:44:05.095Z,44.40
2023-04-23T17:45:09.240Z,43.60
2023-04-23T17:46:13.100Z,44.70
2023-04-23T17:47:15.820Z,43.80
2023-04-23T17:48:23.086Z,43.70
2023-04-23T17:49:26.740Z,43.90
2023-04-23T17:50:30.278Z,43.90
2023-04-23T17:51:34.605Z,43.80
2023-04-23T17:52:37.341Z,44.10
2023-04-23T17:53:42.630Z,43.80
2023-04-23T17:54:46.299Z,43.80
2023-04-23T17:55:49.907Z,43.20
2023-04-23T17:56:52.626Z,44.00
2023-04-23T17:57:57.913Z,43.80
2023-04-23T17:59:01.723Z,43.80
2023-04-23T18:00:09.717Z,43.90
2023-04-23T18:01:17.779Z,43.70
2023-04-23T18:02:21.058Z,43.80
2023-04-23T18:03:28.206Z,43.90
2023-04-23T18:04:34.960Z,43.80
2023-04-23T18:05:37.822Z,44.10
2023-04-23T18:06:41.857Z,44.10
2023-04-23T18:07:45.922Z,44.40
2023-04-23T18:08:49.814Z,44.50
2023-04-23T18:09:52.616Z,44.20
2023-04-23T18:10:56.681Z,44.00